createdAt,value
2019-02-18T00:01:32.245Z,96429.52
2019-02-18T00:04:04.106Z,96427.14
2019-02-18T00:06:35.374Z,96431.89
2019-02-18T00:09:06.870Z,96429.77
2019-02-18T00:11:37.881Z,96429.53
2019-02-18T00:14:09.189Z,96423.86
2019-02-18T00:16:40.353Z,96427.47
2019-02-18T00:19:11.437Z,96423.47
2019-02-18T00:21:42.527Z,96427.00
2019-02-18T00:24:13.877Z,96427.19
2019-02-18T00:26:44.866Z,96428.49
2019-02-18T00:29:15.920Z,96429.20
2019-02-18T00:31:46.986Z,96427.73
2019-02-18T00:34:18.147Z,96424.65
2019-02-18T00:36:49.152Z,96428.65
2019-02-18T00:39:21.222Z,96430.73
2019-02-18T00:41:52.295Z,96420.34
2019-02-18T00:44:23.308Z,96427.61
2019-02-18T00:46:54.386Z,96420.01
2019-02-18T00:49:25.456Z,96418.55
2019-02-18T00:51:56.456Z,96422.78
2019-02-18T00:54:27.430Z,96420.37
2019-02-18T00:56:58.458Z,96422.70
2019-02-18T00:59:29.597Z,96422.02
2019-02-18T01:02:00.675Z,96420.60
2019-02-18T01:04:31.764Z,96418.33
2019-02-18T01:07:03.180Z,96414.04
2019-02-18T01:09:34.200Z,96408.69
2019-02-18T01:12:05.360Z,96408.69
2019-02-18T01:14:36.510Z,96420.45
2019-02-18T01:17:07.678Z,96413.44
2019-02-18T01:19:38.643Z,96410.51
2019-02-18T01:22:09.625Z,96412.77
2019-02-18T01:24:40.703Z,96415.39
2019-02-18T01:27:11.763Z,96410.44
2019-02-18T01:29:42.843Z,96407.41
2019-02-18T01:32:13.944Z,96408.40
2019-02-18T01:34:44.961Z,96402.95
2019-02-18T01:37:16.080Z,96402.87
2019-02-18T01:39:47.372Z,96400.78
2019-02-18T01:42:18.386Z,96398.74
2019-02-18T01:44:49.440Z,96398.77
2019-02-18T01:47:20.558Z,96396.84
2019-02-18T01:49:51.784Z,96392.17
2019-02-18T01:52:22.907Z,96388.86
2019-02-18T01:54:53.893Z,96383.39
2019-02-18T01:57:25.033Z,96383.56
2019-02-18T01:59:56.287Z,96378.16
2019-02-18T02:02:27.334Z,96379.66
2019-02-18T02:04:58.432Z,96370.00
2019-02-18T02:07:29.659Z,96370.77
2019-02-18T02:10:00.704Z,96377.40
2019-02-18T02:12:31.713Z,96373.20
2019-02-18T02:15:02.739Z,96363.70
2019-02-18T02:17:33.709Z,96360.98
2019-02-18T02:20:05.423Z,96367.09
2019-02-18T02:22:36.424Z,96359.56
2019-02-18T02:25:07.768Z,96359.99
2019-02-18T02:27:39.174Z,96355.97
2019-02-18T02:30:10.434Z,96355.58
2019-02-18T02:32:41.600Z,96351.03
2019-02-18T02:35:12.807Z,96349.75
2019-02-18T02:37:43.968Z,96347.88
2019-02-18T02:40:15.043Z,96345.73
2019-02-18T02:42:46.110Z,96344.69
2019-02-18T02:45:17.318Z,96340.39
2019-02-18T02:47:48.446Z,96338.83
2019-02-18T02:50:19.675Z,96338.58
2019-02-18T02:52:50.738Z,96335.20
2019-02-18T02:55:21.698Z,96336.39
2019-02-18T02:57:52.735Z,96335.09
2019-02-18T03:00:23.802Z,96335.69
2019-02-18T03:02:54.872Z,96329.84
2019-02-18T03:05:25.913Z,96328.11
2019-02-18T03:07:57.028Z,96329.57
2019-02-18T03:10:28.244Z,96328.58
2019-02-18T03:12:59.339Z,96327.48
2019-02-18T03:15:30.436Z,96329.41
2019-02-18T03:18:01.529Z,96332.29
2019-02-18T03:20:32.532Z,96325.64
2019-02-18T03:23:03.602Z,96326.62
2019-02-18T03:25:37.604Z,96322.66
2019-02-18T03:28:20.372Z,96325.75
2019-02-18T03:31:14.014Z,96328.13
2019-02-18T03:33:52.161Z,96326.78
2019-02-18T03:36:23.262Z,96331.95
2019-02-18T03:38:54.340Z,96337.03
2019-02-18T03:41:25.455Z,96332.22
2019-02-18T03:43:56.572Z,96339.88
2019-02-18T03:46:27.761Z,96331.92
2019-02-18T03:48:58.855Z,96337.86
2019-02-18T03:51:29.829Z,96331.77
2019-02-18T03:54:01.160Z,96335.28
2019-02-18T03:56:32.300Z,96333.78
2019-02-18T03:59:03.428Z,96334.03
2019-02-18T04:01:34.550Z,96336.69
2019-02-18T04:04:05.640Z,96343.63
2019-02-18T04:06:36.819Z,96338.89
2019-02-18T04:09:07.907Z,96353.34
2019-02-18T04:11:38.896Z,96355.07
2019-02-18T04:14:10.075Z,96349.05
2019-02-18T04:16:41.087Z,96351.41
2019-02-18T04:19:12.102Z,96348.28
2019-02-18T04:21:43.127Z,96346.55
2019-02-18T04:24:14.133Z,96343.69
2019-02-18T04:26:45.160Z,96345.02
2019-02-18T04:29:16.177Z,96340.43
2019-02-18T04:31:47.173Z,96342.92
2019-02-18T04:34:18.270Z,96342.05
2019-02-18T04:36:49.334Z,96337.05
2019-02-18T04:39:20.343Z,96340.43
2019-02-18T04:41:51.424Z,96336.68
2019-02-18T04:44:22.443Z,96334.03
2019-02-18T04:46:53.435Z,96327.23
2019-02-18T04:49:24.581Z,96319.73
2019-02-18T04:51:55.656Z,96324.48
2019-02-18T04:54:26.679Z,96323.22
2019-02-18T04:56:57.833Z,96323.16
2019-02-18T04:59:28.985Z,96324.59
2019-02-18T05:02:00.078Z,96326.52
2019-02-18T05:04:31.097Z,96325.71
2019-02-18T05:07:02.114Z,96321.36
2019-02-18T05:09:33.119Z,96320.90
2019-02-18T05:12:04.204Z,96318.61
2019-02-18T05:14:36.338Z,96321.22
2019-02-18T05:17:07.406Z,96315.24
2019-02-18T05:19:38.439Z,96321.11
2019-02-18T05:22:09.531Z,96310.48
2019-02-18T05:24:40.530Z,96309.78
2019-02-18T05:27:11.618Z,96308.84
2019-02-18T05:29:42.801Z,96303.62
2019-02-18T05:32:13.807Z,96312.28
2019-02-18T05:34:44.851Z,96307.58
2019-02-18T05:37:15.927Z,96308.77
2019-02-18T05:39:47.241Z,96306.88
2019-02-18T05:42:18.457Z,96302.22
2019-02-18T05:44:49.477Z,96312.37
2019-02-18T05:47:20.575Z,96317.65
2019-02-18T05:49:51.671Z,96322.45
2019-02-18T05:52:22.799Z,96325.63
2019-02-18T05:54:53.891Z,96324.29
2019-02-18T05:57:25.075Z,96322.24
2019-02-18T05:59:56.390Z,96324.34
2019-02-18T06:02:27.648Z,96321.73
2019-02-18T06:04:58.656Z,96321.63
2019-02-18T06:07:29.878Z,96325.25
2019-02-18T06:10:00.873Z,96321.42
2019-02-18T06:12:32.008Z,96322.55
2019-02-18T06:15:03.095Z,96322.25
2019-02-18T06:17:34.168Z,96325.11
2019-02-18T06:20:05.532Z,96327.16
2019-02-18T06:22:38.674Z,96329.70
2019-02-18T06:25:09.505Z,96328.45
2019-02-18T06:27:40.519Z,96332.77
2019-02-18T06:30:11.612Z,96328.38
2019-02-18T06:32:42.699Z,96328.83
2019-02-18T06:35:13.783Z,96330.88
2019-02-18T06:37:44.937Z,96333.11
2019-02-18T06:40:16.075Z,96334.64
2019-02-18T06:42:47.238Z,96338.47
2019-02-18T06:45:37.330Z,96342.30
2019-02-18T06:48:21.241Z,96346.86
2019-02-18T06:50:52.357Z,96351.09
2019-02-18T06:53:23.522Z,96345.98
2019-02-18T06:55:54.658Z,96351.86
2019-02-18T06:58:39.698Z,96350.47
2019-02-18T07:01:25.346Z,96358.03
2019-02-18T07:04:07.236Z,96351.63
2019-02-18T07:06:56.286Z,96350.35
2019-02-18T07:09:50.965Z,96351.67
2019-02-18T07:12:22.253Z,96354.41
2019-02-18T07:14:53.246Z,96348.24
2019-02-18T07:17:24.585Z,96353.27
2019-02-18T07:19:55.892Z,96356.63
2019-02-18T07:22:28.042Z,96349.80
2019-02-18T07:24:59.110Z,96345.84
2019-02-18T07:27:30.357Z,96357.19
2019-02-18T07:30:01.613Z,96348.41
2019-02-18T07:32:32.975Z,96344.53
2019-02-18T07:35:04.798Z,96347.66
2019-02-18T07:37:36.013Z,96348.57
2019-02-18T07:40:08.426Z,96340.98
2019-02-18T07:42:39.633Z,96340.33
2019-02-18T07:45:11.050Z,96339.30
2019-02-18T07:47:42.057Z,96332.50
2019-02-18T07:50:20.340Z,96335.04
2019-02-18T07:52:45.965Z,96322.64
2019-02-18T07:55:18.300Z,96329.88
2019-02-18T07:57:49.319Z,96325.97
2019-02-18T08:00:20.454Z,96319.56
2019-02-18T08:02:51.694Z,96322.86
2019-02-18T08:05:22.835Z,96320.63
2019-02-18T08:07:53.895Z,96311.81
2019-02-18T08:10:24.981Z,96315.05
2019-02-18T08:12:56.103Z,96313.22
2019-02-18T08:15:28.240Z,96310.02
2019-02-18T08:17:59.487Z,96311.97
2019-02-18T08:20:30.422Z,96309.31
2019-02-18T08:23:01.432Z,96299.97
2019-02-18T08:25:32.613Z,96306.22
2019-02-18T08:28:03.655Z,96303.53
2019-02-18T08:30:34.909Z,96301.15
2019-02-18T08:33:06.121Z,96303.53
2019-02-18T08:35:37.295Z,96300.70
2019-02-18T08:38:08.476Z,96301.51
2019-02-18T08:40:39.541Z,96303.97
2019-02-18T08:43:10.626Z,96303.75
2019-02-18T08:45:41.764Z,96298.78
2019-02-18T08:48:12.785Z,96299.72
2019-02-18T08:50:43.898Z,96294.39
2019-02-18T08:53:14.920Z,96304.09
2019-02-18T08:55:46.123Z,96302.36
2019-02-18T08:58:17.147Z,96304.06
2019-02-18T09:00:48.259Z,96303.29
2019-02-18T09:03:19.292Z,96295.39
2019-02-18T09:05:50.498Z,96291.63
2019-02-18T09:08:21.642Z,96294.99
2019-02-18T09:10:52.832Z,96298.95
2019-02-18T09:13:23.830Z,96293.77
2019-02-18T09:16:00.018Z,96288.20
2019-02-18T09:18:27.817Z,96296.19
2019-02-18T09:20:58.888Z,96291.41
2019-02-18T09:23:54.925Z,96290.56
2019-02-18T09:26:26.195Z,96289.45
2019-02-18T09:28:57.286Z,96294.22
2019-02-18T09:31:31.314Z,96292.38
2019-02-18T09:34:02.411Z,96282.34
2019-02-18T09:36:33.483Z,96282.84
2019-02-18T09:39:05.392Z,96290.38
2019-02-18T09:41:36.376Z,96277.66
2019-02-18T09:44:07.459Z,96284.78
2019-02-18T09:46:40.341Z,96281.82
2019-02-18T09:49:11.443Z,96283.78
2019-02-18T09:51:42.453Z,96281.39
2019-02-18T09:54:13.579Z,96279.44
2019-02-18T09:56:44.586Z,96276.85
2019-02-18T09:59:15.650Z,96268.23
2019-02-18T10:01:46.727Z,96270.99
2019-02-18T10:04:17.841Z,96274.53
2019-02-18T10:06:48.963Z,96270.52
2019-02-18T10:09:20.142Z,96271.41
2019-02-18T10:11:51.259Z,96268.38
2019-02-18T10:14:22.350Z,96275.99
2019-02-18T10:16:53.359Z,96273.41
2019-02-18T10:19:24.536Z,96272.27
2019-02-18T10:21:55.591Z,96270.74
2019-02-18T10:24:26.765Z,96271.09
2019-02-18T10:26:58.467Z,96273.59
2019-02-18T10:29:29.486Z,96269.13
2019-02-18T10:32:00.620Z,96249.02
2019-02-18T10:34:31.630Z,96265.12
2019-02-18T10:37:02.834Z,96266.61
2019-02-18T10:39:33.830Z,96265.91
2019-02-18T10:42:04.971Z,96268.05
2019-02-18T10:44:36.087Z,96261.08
2019-02-18T10:47:07.187Z,96251.66
2019-02-18T10:49:38.504Z,96252.98
2019-02-18T10:52:09.578Z,96257.67
2019-02-18T10:54:40.602Z,96245.22
2019-02-18T10:57:11.670Z,96243.09
2019-02-18T10:59:42.671Z,96236.80
2019-02-18T11:02:14.278Z,96233.45
2019-02-18T11:04:45.318Z,96225.02
2019-02-18T11:07:16.426Z,96225.69
2019-02-18T11:09:47.511Z,96221.29
2019-02-18T11:12:18.611Z,96213.95
2019-02-18T11:14:49.680Z,96204.05
2019-02-18T11:17:20.772Z,96195.24
2019-02-18T11:19:51.785Z,96198.94
2019-02-18T11:22:22.964Z,96197.17
2019-02-18T11:24:54.067Z,96192.56
2019-02-18T11:27:25.155Z,96187.19
2019-02-18T11:29:56.267Z,96180.69
2019-02-18T11:32:27.287Z,96178.76
2019-02-18T11:35:00.515Z,96179.54
2019-02-18T11:37:32.709Z,96171.78
2019-02-18T11:40:04.150Z,96164.63
2019-02-18T11:42:37.499Z,96161.70
2019-02-18T11:45:10.317Z,96157.25
2019-02-18T11:47:42.428Z,96152.17
2019-02-18T11:50:13.903Z,96146.72
2019-02-18T12:44:40.341Z,96145.34
2019-02-18T12:47:11.652Z,96145.34
2019-02-18T12:49:42.783Z,96070.93
2019-02-18T12:52:13.937Z,96063.77
2019-02-18T12:54:46.009Z,96062.59
2019-02-18T12:57:17.383Z,96057.42
2019-02-18T12:59:48.534Z,96051.12
2019-02-18T13:02:20.048Z,96050.92
2019-02-18T13:04:51.089Z,96043.96
2019-02-18T13:07:22.167Z,96031.64
2019-02-18T13:09:53.291Z,96030.69
2019-02-18T13:12:24.389Z,96028.16
2019-02-18T13:14:56.991Z,96026.98
2019-02-18T13:17:29.401Z,96023.05
2019-02-18T13:20:00.502Z,96023.50
2019-02-18T13:22:31.596Z,96015.50
2019-02-18T13:25:02.761Z,96019.02
2019-02-18T13:27:33.825Z,96011.48
2019-02-18T13:30:09.303Z,96009.23
2019-02-18T13:32:40.453Z,96007.66
2019-02-18T13:35:11.632Z,96004.03
2019-02-18T13:37:42.782Z,96005.56
2019-02-18T13:40:14.542Z,96002.41
2019-02-18T13:42:46.155Z,95997.81
2019-02-18T13:45:17.329Z,95998.47
2019-02-18T13:47:48.463Z,95999.17
2019-02-18T13:50:19.541Z,95997.78
2019-02-18T13:52:50.637Z,95995.64
2019-02-18T13:55:21.817Z,95997.62
2019-02-18T13:57:52.980Z,95999.09
2019-02-18T14:00:24.139Z,95990.73
2019-02-18T14:02:55.272Z,95988.50
2019-02-18T14:05:26.427Z,95988.97
2019-02-18T14:07:57.628Z,95989.81
2019-02-18T14:10:29.017Z,95987.28
2019-02-18T14:13:00.076Z,95989.17
2019-02-18T14:15:31.213Z,95987.45
2019-02-18T14:18:03.176Z,95987.13
2019-02-18T14:20:35.252Z,95984.37
2019-02-18T14:23:06.417Z,95978.16
2019-02-18T14:25:37.551Z,95976.47
2019-02-18T14:28:08.550Z,95975.25
2019-02-18T14:30:39.691Z,95973.95
2019-02-18T14:33:10.936Z,95975.30
2019-02-18T14:35:41.983Z,95967.12
2019-02-18T14:38:13.021Z,95974.09
2019-02-18T14:40:44.298Z,95973.48
2019-02-18T14:43:15.458Z,95973.48
2019-02-18T14:45:46.632Z,95973.38
2019-02-18T14:48:17.740Z,95961.32
2019-02-18T14:50:56.482Z,95960.42
2019-02-18T14:53:21.803Z,95961.31
2019-02-18T14:55:53.003Z,95962.34
2019-02-18T14:58:26.368Z,95962.34
2019-02-18T15:00:57.524Z,95962.34
2019-02-18T15:03:28.636Z,95950.26
2019-02-18T15:05:59.661Z,95952.69
2019-02-18T15:08:30.902Z,95948.14
2019-02-18T15:11:01.979Z,95948.66
2019-02-18T15:13:33.389Z,95949.80
2019-02-18T15:16:04.655Z,95947.73
2019-02-18T15:18:35.683Z,95947.81
2019-02-18T15:21:06.755Z,95947.30
2019-02-18T15:23:37.842Z,95938.30
2019-02-18T15:26:09.359Z,95942.14
2019-02-18T15:28:40.492Z,95946.00
2019-02-18T15:31:11.742Z,95938.47
2019-02-18T15:33:42.837Z,95939.63
2019-02-18T15:36:13.897Z,95939.83
2019-02-18T15:38:45.236Z,95937.76
2019-02-18T15:41:16.382Z,95939.69
2019-02-18T15:43:47.566Z,95931.47
2019-02-18T15:46:18.694Z,95934.34
2019-02-18T15:48:49.868Z,95933.64
2019-02-18T15:51:21.472Z,95933.50
2019-02-18T15:53:52.512Z,95935.35
2019-02-18T15:56:23.599Z,95931.78
2019-02-18T15:58:54.693Z,95933.69
2019-02-18T16:01:26.047Z,95928.89
2019-02-18T16:03:57.523Z,95939.16
2019-02-18T16:06:28.844Z,95931.35
2019-02-18T16:08:59.882Z,95930.79
2019-02-18T16:11:30.880Z,95929.99
2019-02-18T16:14:01.903Z,95927.38
2019-02-18T16:16:33.217Z,95935.31
2019-02-18T16:19:04.399Z,95933.67
2019-02-18T16:21:35.585Z,95935.27
2019-02-18T16:24:06.749Z,95926.66
2019-02-18T16:26:37.841Z,95931.34
2019-02-18T16:29:08.931Z,95934.39
2019-02-18T16:31:40.452Z,95926.05
2019-02-18T16:34:11.848Z,95934.94
2019-02-18T16:36:43.007Z,95930.70
2019-02-18T16:39:14.164Z,95930.95
2019-02-18T16:41:45.246Z,95938.31
2019-02-18T16:44:16.332Z,95937.88
2019-02-18T16:46:47.568Z,95938.69
2019-02-18T16:49:18.696Z,95939.14
2019-02-18T16:54:18.866Z,95947.28
2019-02-18T16:56:49.888Z,95943.70
2019-02-18T16:59:20.990Z,95944.14
2019-02-18T17:01:52.119Z,95937.28
2019-02-18T17:04:24.347Z,95936.74
2019-02-18T17:06:55.433Z,95938.59
2019-02-18T17:09:26.857Z,95939.52
2019-02-18T17:11:58.099Z,95939.49
2019-02-18T17:14:29.186Z,95945.55
2019-02-18T17:17:00.252Z,95941.64
2019-02-18T17:19:31.336Z,95941.14
2019-02-18T17:22:02.732Z,95949.81
2019-02-18T17:24:33.883Z,95950.50
2019-02-18T17:27:04.938Z,95954.86
2019-02-18T17:29:36.034Z,95947.91
2019-02-18T17:32:07.211Z,95943.31
2019-02-18T17:34:38.455Z,95942.95
2019-02-18T17:37:09.614Z,95945.80
2019-02-18T17:39:40.660Z,95949.39
2019-02-18T17:42:11.730Z,95950.62
2019-02-18T17:44:42.912Z,95947.91
2019-02-18T17:47:13.952Z,95950.30
2019-02-18T17:49:45.026Z,95947.77
2019-02-18T17:52:16.025Z,95946.42
2019-02-18T17:54:47.007Z,95941.97
2019-02-18T17:57:18.143Z,95938.02
2019-02-18T17:59:49.192Z,95937.78
2019-02-18T18:02:20.736Z,95939.56
2019-02-18T18:04:51.750Z,95938.02
2019-02-18T18:07:22.752Z,95939.77
2019-02-18T18:09:53.782Z,95937.18
2019-02-18T18:12:24.856Z,95939.37
2019-02-18T18:14:56.322Z,95933.59
2019-02-18T18:17:27.410Z,95936.50
2019-02-18T18:19:58.479Z,95936.50
2019-02-18T18:22:29.801Z,95938.81
2019-02-18T18:25:00.920Z,95935.56
2019-02-18T18:27:32.406Z,95938.84
2019-02-18T18:30:03.639Z,95938.43
2019-02-18T18:32:34.891Z,95935.30
2019-02-18T18:35:06.823Z,95939.47
2019-02-18T18:37:38.255Z,95934.74
2019-02-18T18:40:12.144Z,95940.65
2019-02-18T18:42:43.304Z,95938.28
2019-02-18T18:45:15.834Z,95940.42
2019-02-18T18:47:47.093Z,95943.56
2019-02-18T18:50:18.687Z,95935.55
2019-02-18T18:52:50.149Z,95937.73
2019-02-18T18:55:21.337Z,95933.75
2019-02-18T18:57:52.504Z,95926.00
2019-02-18T19:00:24.535Z,95928.70
2019-02-18T19:02:55.689Z,95932.13
2019-02-18T19:05:26.785Z,95931.52
2019-02-18T19:07:57.883Z,95931.87
2019-02-18T19:10:29.021Z,95935.38
2019-02-18T19:13:01.178Z,95935.00
2019-02-18T19:15:32.284Z,95935.72
2019-02-18T19:18:03.441Z,95941.27
2019-02-18T19:20:35.525Z,95941.80
2019-02-18T19:23:06.572Z,95940.30
2019-02-18T19:25:37.734Z,95946.28
2019-02-18T19:28:08.908Z,95941.09
2019-02-18T19:30:40.002Z,95943.91
2019-02-18T19:33:11.168Z,95939.95
2019-02-18T19:35:42.298Z,95934.51
2019-02-18T19:38:13.508Z,95937.63
2019-02-18T19:40:44.681Z,95939.78
2019-02-18T19:43:15.689Z,95945.56
2019-02-18T19:45:46.714Z,95942.75
2019-02-18T19:48:17.780Z,95941.35
2019-02-18T19:50:49.132Z,95942.36
2019-02-18T19:53:20.220Z,95939.51
2019-02-18T19:55:51.312Z,95938.91
2019-02-18T19:58:22.458Z,95935.32
2019-02-18T20:00:53.685Z,95939.71
2019-02-18T20:03:24.901Z,95943.92
2019-02-18T20:05:55.991Z,95939.24
2019-02-18T20:08:27.070Z,95942.34
2019-02-18T20:10:59.214Z,95940.86
2019-02-18T20:13:30.367Z,95946.77
2019-02-18T20:16:01.509Z,95939.56
2019-02-18T20:18:32.646Z,95941.47
2019-02-18T20:21:03.784Z,95946.25
2019-02-18T20:23:34.860Z,95942.91
2019-02-18T20:26:06.049Z,95944.67
2019-02-18T20:28:37.162Z,95945.12
2019-02-18T20:31:08.290Z,95945.30
2019-02-18T20:33:39.546Z,95944.20
2019-02-18T20:36:10.760Z,95944.50
2019-02-18T20:38:41.853Z,95946.63
2019-02-18T20:41:12.944Z,95946.42
2019-02-18T20:43:43.934Z,95941.80
2019-02-18T20:46:15.323Z,95942.98
2019-02-18T20:48:46.727Z,95947.47
2019-02-18T20:51:17.898Z,95942.05
2019-02-18T20:53:49.016Z,95944.20
2019-02-18T20:56:20.331Z,95948.06
2019-02-18T20:58:51.437Z,95957.00
2019-02-18T21:01:22.672Z,95950.73
2019-02-18T21:03:53.696Z,95950.27
2019-02-18T21:06:24.877Z,95950.55
2019-02-18T21:08:55.996Z,95950.86
2019-02-18T21:11:27.159Z,95948.73
2019-02-18T21:13:58.345Z,95950.10
2019-02-18T21:16:29.366Z,95956.73
2019-02-18T21:19:00.406Z,95953.61
2019-02-18T21:21:32.566Z,95953.11
2019-02-18T21:24:03.645Z,95955.80
2019-02-18T21:26:36.687Z,95952.70
2019-02-18T21:29:07.526Z,95951.45
2019-02-18T21:31:38.591Z,95953.13
2019-02-18T21:34:09.708Z,95952.77
2019-02-18T21:36:40.762Z,95950.86
2019-02-18T21:39:13.442Z,95949.50
2019-02-18T21:41:44.845Z,95956.37
2019-02-18T21:44:24.721Z,95959.84
2019-02-18T21:46:48.690Z,95960.77
2019-02-18T21:49:19.703Z,95961.66
2019-02-18T21:51:50.904Z,95959.06
2019-02-18T21:54:22.054Z,95954.90
2019-02-18T21:56:53.126Z,95958.53
2019-02-18T21:59:24.229Z,95963.84
2019-02-18T22:01:55.539Z,95961.47
2019-02-18T22:04:26.550Z,95960.48
2019-02-18T22:06:57.718Z,95964.59
2019-02-18T22:09:28.755Z,95951.17
2019-02-18T22:12:01.783Z,95956.59
2019-02-18T22:14:35.237Z,95958.61
2019-02-18T22:17:05.966Z,95965.59
2019-02-18T22:19:37.144Z,95960.33
2019-02-18T22:22:08.274Z,95970.48
2019-02-18T22:24:39.552Z,95970.90
2019-02-18T22:27:11.151Z,95970.98
2019-02-18T22:29:42.311Z,95960.27
2019-02-18T22:32:13.412Z,95967.27
2019-02-18T22:34:44.567Z,95964.69
2019-02-18T22:37:15.637Z,95963.36
2019-02-18T22:39:46.904Z,95962.23
2019-02-18T22:42:18.054Z,95956.59
2019-02-18T22:44:49.324Z,95963.14
2019-02-18T22:47:20.378Z,95969.32
2019-02-18T22:49:51.532Z,95965.77
2019-02-18T22:52:22.634Z,95971.13
2019-02-18T22:54:54.005Z,95970.12
2019-02-18T22:57:25.033Z,95968.30
2019-02-18T22:59:56.038Z,95977.88
2019-02-18T23:02:27.234Z,95970.98
2019-02-18T23:04:58.406Z,95961.47
2019-02-18T23:07:29.465Z,95960.19
2019-02-18T23:10:00.493Z,95965.73
2019-02-18T23:12:31.657Z,95971.20
2019-02-18T23:15:02.774Z,95967.19
2019-02-18T23:17:33.960Z,95980.22
2019-02-18T23:20:05.342Z,95979.13
2019-02-18T23:22:36.592Z,95979.56
2019-02-18T23:25:07.756Z,95979.51
2019-02-18T23:27:38.878Z,95979.05
2019-02-18T23:30:10.110Z,95980.20
2019-02-18T23:32:41.302Z,95978.59
2019-02-18T23:35:12.945Z,95975.47
2019-02-18T23:37:43.983Z,95980.50
2019-02-18T23:40:15.109Z,95969.33
2019-02-18T23:42:46.214Z,95976.02
2019-02-18T23:45:17.209Z,95976.02
2019-02-18T23:47:48.283Z,95974.65
2019-02-18T23:50:19.376Z,95980.05
2019-02-18T23:52:50.493Z,95987.53
2019-02-18T23:55:21.506Z,95992.44
2019-02-18T23:57:52.601Z,95994.54
